Time;durP1;ratioP1;P1;durP2;ratioP2;P2;SDS_P1;SDS_P2;PMS_P1;PMS_P2;Temp;Humidity;BMP_temperature;BMP_pressure;BME280_temperature;BME280_humidity;BME280_pressure;Samples;Min_cycle;Max_cycle;Signal;HPM_P1;HPM_P2
2022/06/05 00:02:01;;;;;;;6.88;6.25;;;;;;;13.67;75.68;101843.69;5077371;28;20056;-87
2022/06/05 00:04:30;;;;;;;7.28;6.78;;;;;;;13.67;73.18;101842.81;5060463;28;20301;-87
2022/06/05 00:07:02;;;;;;;7.53;6.95;;;;;;;13.64;72.61;101837.59;5060416;28;20473;-87
2022/06/05 00:09:34;;;;;;;7.07;6.47;;;;;;;13.58;74.51;101837.66;5076857;28;20398;-87
2022/06/05 00:12:12;;;;;;;6.72;6.22;;;;;;;13.54;74.48;101842.06;5060111;28;20067;-87
2022/06/05 00:14:39;;;;;;;7.15;6.55;;;;;;;13.53;73.59;101837.69;5060251;28;20493;-87
2022/06/05 00:17:11;;;;;;;7.35;6.75;;;;;;;13.50;73.34;101829.88;5060283;28;20028;-87
2022/06/05 00:19:39;;;;;;;6.78;6.28;;;;;;;13.45;73.56;101829.91;5076426;28;20103;-87
2022/06/05 00:22:06;;;;;;;7.03;6.53;;;;;;;13.41;74.75;101822.94;5059969;28;20511;-87
2022/06/05 00:24:34;;;;;;;6.15;5.75;;;;;;;13.38;74.39;101824.75;5060566;28;20020;-87
2022/06/05 00:27:06;;;;;;;7.57;6.38;;;;;;;13.35;74.95;101823.88;5059925;28;20077;-87
2022/06/05 00:29:34;;;;;;;6.65;6.18;;;;;;;13.32;74.39;101818.63;5076403;28;20093;-87
2022/06/05 00:32:06;;;;;;;7.70;7.15;;;;;;;13.28;74.63;101816.94;5094313;28;20042;-87
2022/06/05 00:34:31;;;;;;;7.43;6.65;;;;;;;13.26;75.06;101816.06;5076584;28;20024;-87
2022/06/05 00:37:03;;;;;;;6.32;5.93;;;;;;;13.24;75.42;101817.84;5059697;28;20474;-87
2022/06/05 00:39:53;;;;;;;6.43;5.93;;;;;;;13.19;75.42;101809.13;5076382;28;20070;-87
2022/06/05 00:42:22;;;;;;;6.90;6.30;;;;;;;13.18;75.05;101807.38;5076500;28;20541;-87
2022/06/05 00:44:51;;;;;;;6.45;6.05;;;;;;;13.15;74.80;101799.56;5059658;28;20024;-87
2022/06/05 00:47:20;;;;;;;7.15;6.60;;;;;;;13.12;75.38;101796.97;5059437;28;20028;-87
2022/06/05 00:49:52;;;;;;;6.45;5.95;;;;;;;13.08;74.00;101795.25;5059258;28;20508;-87
2022/06/05 00:52:19;;;;;;;7.28;6.65;;;;;;;13.06;74.66;101799.63;5059665;28;20066;-87
2022/06/05 00:54:45;;;;;;;6.97;6.55;;;;;;;13.06;72.77;101799.63;5059545;28;20098;-87
2022/06/05 00:57:12;;;;;;;6.55;6.10;;;;;;;13.02;71.76;101797.03;5059250;28;20474;-87
2022/06/05 00:59:39;;;;;;;6.63;6.18;;;;;;;12.98;73.52;101797.09;5059193;28;20012;-87
2022/06/05 01:02:05;;;;;;;6.72;6.20;;;;;;;12.94;74.24;101809.34;5076343;28;20473;-87
2022/06/05 01:04:32;;;;;;;7.30;6.65;;;;;;;12.91;74.28;101798.00;5059284;28;20028;-86
2022/06/05 01:06:58;;;;;;;7.05;6.65;;;;;;;12.88;73.96;101792.78;5059183;28;20405;-87
2022/06/05 01:09:23;;;;;;;7.25;6.55;;;;;;;12.84;74.99;101802.44;5059023;28;20016;-87
2022/06/05 01:12:08;;;;;;;7.28;6.60;;;;;;;12.81;75.34;101799.84;5058941;28;20040;-87
2022/06/05 01:14:38;;;;;;;7.13;6.68;;;;;;;12.80;75.59;101795.47;5059150;28;20031;-84
2022/06/05 01:17:12;;;;;;;8.15;7.45;;;;;;;12.77;74.65;101780.63;5059126;28;20032;-83
2022/06/05 01:19:43;;;;;;;7.40;6.70;;;;;;;12.75;74.35;101785.03;5075628;28;20473;-84
2022/06/05 01:22:40;;;;;;;7.57;7.07;;;;;;;12.73;74.77;101778.91;5093523;28;20031;-84
2022/06/05 01:25:16;;;;;;;7.60;6.95;;;;;;;12.72;75.37;101781.56;5034928;28;20031;-84
2022/06/05 01:27:46;;;;;;;7.80;7.20;;;;;;;12.71;74.79;101779.81;5058676;28;20028;-84
2022/06/05 01:30:17;;;;;;;7.82;7.22;;;;;;;12.68;75.41;101775.50;5057683;28;20046;-83
2022/06/05 01:33:14;;;;;;;7.68;7.07;;;;;;;12.66;75.16;101772.84;5075387;28;20028;-84
2022/06/05 01:35:48;;;;;;;7.65;6.95;;;;;;;12.65;74.88;101770.25;5059026;28;20108;-84
2022/06/05 01:38:18;;;;;;;8.07;7.47;;;;;;;12.62;74.88;101768.50;5058423;28;20077;-84
2022/06/05 01:40:48;;;;;;;7.55;6.90;;;;;;;12.60;74.42;101765.06;5058407;28;20023;-84
2022/06/05 01:43:18;;;;;;;7.00;6.50;;;;;;;12.58;74.88;101758.06;5058391;28;20524;-84
2022/06/05 01:45:48;;;;;;;7.63;7.03;;;;;;;12.54;75.74;101757.22;5058586;28;20020;-83
2022/06/05 01:48:20;;;;;;;8.50;7.70;;;;;;;12.52;75.69;101753.75;5058237;28;20020;-83
2022/06/05 01:50:56;;;;;;;7.70;7.20;;;;;;;12.52;76.93;101753.75;5058289;28;20114;-83
2022/06/05 01:53:25;;;;;;;7.88;7.28;;;;;;;12.51;75.92;101746.75;5058615;28;20115;-84
2022/06/05 01:56:18;;;;;;;8.70;8.00;;;;;;;12.50;75.47;101755.50;5058199;28;20485;-84
2022/06/05 01:58:51;;;;;;;7.72;7.13;;;;;;;12.48;75.58;101752.03;5055176;28;20460;-84
2022/06/05 02:01:21;;;;;;;8.60;7.97;;;;;;;12.44;75.75;101752.94;5057953;28;20166;-83
2022/06/05 02:03:56;;;;;;;8.35;7.65;;;;;;;12.44;75.68;101752.94;5058418;28;20012;-84
2022/06/05 02:06:26;;;;;;;8.10;7.40;;;;;;;12.43;73.70;101751.19;5057998;28;20024;-84
2022/06/05 02:08:56;;;;;;;8.32;7.63;;;;;;;12.40;74.72;101743.38;5058008;28;20105;-84
2022/06/05 02:11:27;;;;;;;7.95;7.35;;;;;;;12.35;76.02;101740.75;5057955;28;20032;-83
2022/06/05 02:13:59;;;;;;;7.95;7.28;;;;;;;12.34;75.60;101739.91;5057784;28;20119;-84
2022/06/05 02:16:26;;;;;;;7.72;7.13;;;;;;;12.33;75.99;101738.16;5057887;28;20028;-84
2022/06/05 02:18:52;;;;;;;7.90;7.20;;;;;;;12.30;76.18;101738.19;5057927;28;20020;-84
2022/06/05 02:21:17;;;;;;;9.43;8.57;;;;;;;12.29;75.97;101738.19;5057746;28;20027;-84
2022/06/05 02:23:43;;;;;;;8.57;7.85;;;;;;;12.27;76.85;101729.47;5057830;28;20485;-84
2022/06/05 02:26:09;;;;;;;8.63;7.82;;;;;;;12.25;77.34;101736.47;5057560;28;20043;-84
2022/06/05 02:28:36;;;;;;;8.50;7.80;;;;;;;12.24;76.00;101734.72;5057600;28;20027;-84
2022/06/05 02:31:44;;;;;;;8.75;8.05;;;;;;;12.23;75.05;101731.25;5057392;28;20485;-83
2022/06/05 02:34:17;;;;;;;7.85;7.30;;;;;;;12.21;75.81;101733.00;5053158;28;20394;-83
2022/06/05 02:36:55;;;;;;;7.70;7.00;;;;;;;12.21;74.35;101737.38;5074412;28;20032;-84
2022/06/05 02:39:42;;;;;;;7.40;6.85;;;;;;;12.16;75.65;101734.78;5057457;28;20027;-84
2022/06/05 02:42:39;;;;;;;7.95;7.28;;;;;;;12.13;75.72;101732.19;5057616;28;20513;-83
2022/06/05 02:45:33;;;;;;;9.32;8.52;;;;;;;12.12;75.84;101733.06;5074181;28;20020;-84
2022/06/05 02:48:15;;;;;;;8.52;7.80;;;;;;;12.11;75.41;101723.47;5057629;28;20024;-83
2022/06/05 02:51:19;;;;;;;8.70;7.90;;;;;;;12.07;76.33;101721.75;5057391;28;20050;-84
2022/06/05 02:53:49;;;;;;;8.93;7.78;;;;;;;12.06;77.19;101723.47;4977616;28;20048;-83
2022/06/05 02:56:15;;;;;;;9.20;8.48;;;;;;;12.06;76.65;101717.38;5047685;28;20032;-83
2022/06/05 02:58:40;;;;;;;8.30;7.78;;;;;;;12.05;75.27;101721.75;5057220;28;20085;-83
2022/06/05 03:03:50;;;;;;;8.43;7.75;;;;;;;11.99;76.93;101733.13;5076982;28;20116;-84
2022/06/05 03:06:15;;;;;;;9.73;8.93;;;;;;;11.99;77.22;101730.50;5057338;28;20114;-84
2022/06/05 03:08:40;;;;;;;9.70;8.25;;;;;;;11.99;76.99;101727.88;5057117;28;20012;-83
2022/06/05 03:11:06;;;;;;;8.15;7.55;;;;;;;11.98;77.25;101720.94;5057164;28;20039;-83
2022/06/05 03:13:32;;;;;;;9.05;8.25;;;;;;;11.96;76.98;101733.16;5057343;28;20156;-84
2022/06/05 03:15:57;;;;;;;8.52;7.82;;;;;;;11.95;76.87;101736.63;5057161;28;20020;-84
2022/06/05 03:18:23;;;;;;;9.48;8.77;;;;;;;11.95;76.77;101728.78;5057001;28;20477;-84
2022/06/05 03:20:48;;;;;;;9.43;8.63;;;;;;;11.96;77.27;101733.16;5057005;28;20101;-83
2022/06/05 03:23:14;;;;;;;8.55;7.70;;;;;;;11.94;76.86;101729.69;5057056;28;20449;-84
2022/06/05 03:25:41;;;;;;;9.32;8.63;;;;;;;11.94;76.50;101734.91;5057016;28;20036;-83
2022/06/05 03:28:08;;;;;;;8.48;7.78;;;;;;;11.93;77.19;101734.88;5056985;28;20024;-83
2022/06/05 03:30:36;;;;;;;10.18;9.27;;;;;;;11.93;76.55;101741.00;5056798;28;20085;-84
2022/06/05 03:33:01;;;;;;;9.10;8.27;;;;;;;11.93;76.38;101735.75;5057202;28;20023;-84
2022/06/05 03:35:27;;;;;;;9.63;8.82;;;;;;;11.91;77.29;101734.03;5056934;28;20093;-83
2022/06/05 03:37:52;;;;;;;9.02;8.32;;;;;;;11.90;76.81;101737.50;5057054;28;20031;-84
2022/06/05 03:40:18;;;;;;;9.05;8.27;;;;;;;11.88;77.49;101732.28;5056852;28;20139;-84
2022/06/05 03:42:43;;;;;;;8.43;7.72;;;;;;;11.88;77.99;101724.44;5057129;28;20030;-84
2022/06/05 03:45:14;;;;;;;8.88;8.23;;;;;;;11.89;77.06;101731.41;5056936;28;20504;-84
2022/06/05 03:47:40;;;;;;;8.57;7.97;;;;;;;11.91;76.60;101729.66;5056942;28;20027;-83
2022/06/05 03:50:07;;;;;;;9.60;8.88;;;;;;;11.90;77.24;101738.41;5056788;28;20024;-83
2022/06/05 03:52:32;;;;;;;9.35;8.48;;;;;;;11.91;76.94;101727.03;5057029;28;20485;-84
2022/06/05 03:54:58;;;;;;;9.32;8.52;;;;;;;11.92;77.05;101731.41;5060322;28;20020;-83
2022/06/05 03:57:23;;;;;;;8.55;7.90;;;;;;;11.90;77.37;101725.31;5060535;28;20024;-84
2022/06/05 03:59:48;;;;;;;9.52;8.75;;;;;;;11.90;77.99;101722.69;5060354;28;20374;-84
2022/06/05 04:02:14;;;;;;;9.75;8.85;;;;;;;11.91;77.81;101726.16;5060363;28;20024;-84
2022/06/05 04:04:39;;;;;;;10.25;9.32;;;;;;;11.92;78.42;101731.41;5060492;28;20477;-84
2022/06/05 04:07:04;;;;;;;9.73;8.52;;;;;;;11.94;76.95;101727.06;5060358;28;20024;-83
2022/06/05 04:09:30;;;;;;;10.18;9.27;;;;;;;11.94;76.81;101719.22;5059902;28;20035;-84
2022/06/05 04:11:56;;;;;;;9.27;8.38;;;;;;;11.93;77.93;101727.00;5060195;28;20040;-84
2022/06/05 04:14:21;;;;;;;10.07;9.15;;;;;;;11.91;77.43;101724.41;5060171;28;20020;-83
2022/06/05 04:16:47;;;;;;;8.93;8.13;;;;;;;11.91;78.73;101719.16;5060093;28;20020;-83
2022/06/05 04:19:12;;;;;;;9.00;8.20;;;;;;;11.91;78.29;101719.16;5059919;28;20027;-83
2022/06/05 04:21:41;;;;;;;9.85;8.95;;;;;;;11.92;77.95;101714.81;5060136;28;20030;-84
2022/06/05 04:24:06;;;;;;;9.27;8.23;;;;;;;11.93;78.13;101712.19;5059803;28;20020;-84
2022/06/05 04:26:33;;;;;;;9.13;8.43;;;;;;;11.92;78.01;101707.84;5059963;28;20081;-84
2022/06/05 04:28:59;;;;;;;9.57;8.55;;;;;;;11.94;78.81;101711.34;5076742;28;20071;-83
2022/06/05 04:31:30;;;;;;;10.07;9.05;;;;;;;11.95;77.87;101707.84;5059565;28;20477;-83
2022/06/05 04:33:58;;;;;;;9.98;8.80;;;;;;;11.95;78.31;101702.59;5059939;28;20032;-84
2022/06/05 04:36:23;;;;;;;9.70;8.80;;;;;;;11.96;79.55;101696.50;5059777;28;20032;-84
2022/06/05 04:38:49;;;;;;;8.98;8.18;;;;;;;11.98;79.14;101694.75;5059502;28;20020;-83
2022/06/05 04:41:15;;;;;;;9.40;8.55;;;;;;;12.00;79.88;101692.97;5059502;28;20028;-84
2022/06/05 04:43:41;;;;;;;9.15;8.43;;;;;;;12.04;79.71;101700.81;5059695;28;20035;-83
2022/06/05 04:46:07;;;;;;;10.23;9.32;;;;;;;12.06;79.68;101694.69;5059627;28;20024;-84
2022/06/05 04:48:33;;;;;;;9.98;9.13;;;;;;;12.08;80.58;101692.03;5059596;28;20389;-83
2022/06/05 04:50:59;;;;;;;10.10;9.10;;;;;;;12.13;80.80;101698.13;5059324;28;20032;-83
2022/06/05 04:53:24;;;;;;;10.70;9.75;;;;;;;12.17;80.76;101681.50;5059347;28;20032;-84
2022/06/05 04:55:50;;;;;;;10.93;9.93;;;;;;;12.19;80.52;101682.38;5076134;28;20024;-83
2022/06/05 04:58:15;;;;;;;10.50;9.52;;;;;;;12.22;80.37;101673.66;5059200;28;20048;-84
2022/06/05 05:00:40;;;;;;;10.30;9.32;;;;;;;12.27;80.65;101663.97;5058930;28;20028;-84
2022/06/05 05:03:06;;;;;;;10.00;9.00;;;;;;;12.30;81.01;101670.06;5075978;28;20441;-84
2022/06/05 05:05:33;;;;;;;10.27;9.38;;;;;;;12.34;81.12;101671.78;5058424;28;20023;-80
2022/06/05 05:07:59;;;;;;;10.63;9.73;;;;;;;12.38;80.54;101662.16;5059259;28;20020;-80
2022/06/05 05:10:24;;;;;;;10.88;9.88;;;;;;;12.41;81.06;101663.88;5058974;28;20073;-79
2022/06/05 05:12:49;;;;;;;11.45;10.23;;;;;;;12.46;81.14;101664.69;5059288;28;20500;-79
2022/06/05 05:15:15;;;;;;;13.20;9.40;;;;;;;12.49;80.78;101664.69;5059176;28;20443;-80
2022/06/05 05:17:40;;;;;;;10.82;9.82;;;;;;;12.53;80.81;101666.41;5059074;28;20020;-79
2022/06/05 05:20:06;;;;;;;11.07;9.98;;;;;;;12.55;81.17;101659.38;5059152;28;20031;-79
2022/06/05 05:22:37;;;;;;;10.35;9.43;;;;;;;12.57;80.70;101655.00;5058812;28;20109;-79
2022/06/05 05:25:05;;;;;;;13.10;10.15;;;;;;;12.60;81.15;101662.84;5059923;28;20509;-79
2022/06/05 05:27:31;;;;;;;12.10;11.00;;;;;;;12.63;81.56;101661.94;5058987;28;20031;-79
2022/06/05 05:29:56;;;;;;;10.90;10.00;;;;;;;12.65;81.20;101662.78;5058574;28;20024;-79
2022/06/05 05:32:22;;;;;;;10.10;9.30;;;;;;;12.70;81.29;101668.00;5059054;28;20028;-80
2022/06/05 05:34:47;;;;;;;10.15;9.25;;;;;;;12.71;81.22;101653.97;5058742;28;20170;-80
2022/06/05 05:37:12;;;;;;;10.05;9.25;;;;;;;12.72;81.74;101640.88;5058666;28;20031;-80
2022/06/05 05:42:22;;;;;;;10.35;9.43;;;;;;;12.79;81.44;101639.94;5078228;28;20031;-79
2022/06/05 05:44:49;;;;;;;11.50;10.50;;;;;;;12.82;81.35;101636.41;5075448;28;20024;-80
2022/06/05 05:47:15;;;;;;;10.90;9.90;;;;;;;12.84;80.72;101635.50;5058474;28;20106;-79
2022/06/05 05:49:41;;;;;;;10.70;9.60;;;;;;;12.85;81.48;101636.38;5058109;28;20024;-80
2022/06/05 05:52:08;;;;;;;10.93;9.27;;;;;;;12.90;80.81;101633.69;5058450;28;20033;-80
2022/06/05 05:54:35;;;;;;;10.00;9.20;;;;;;;12.92;81.18;101630.16;5058522;28;20085;-80
2022/06/05 05:57:00;;;;;;;9.45;8.75;;;;;;;12.95;81.53;101632.78;5058465;28;20115;-80
2022/06/05 05:59:26;;;;;;;9.27;8.57;;;;;;;13.00;81.62;101635.34;5058501;28;20055;-80
2022/06/05 06:01:51;;;;;;;10.05;9.15;;;;;;;13.04;81.39;101638.81;5058478;28;20027;-80
2022/06/05 06:04:16;;;;;;;10.57;8.82;;;;;;;13.07;80.92;101638.75;5075133;28;20024;-80
2022/06/05 06:06:45;;;;;;;9.88;8.98;;;;;;;13.10;79.70;101641.34;5058759;28;20059;-80
2022/06/05 06:09:10;;;;;;;9.70;8.85;;;;;;;13.15;78.71;101647.41;5075904;28;20027;-79
2022/06/05 06:11:36;;;;;;;8.93;8.25;;;;;;;13.17;79.19;101646.50;5058896;28;20032;-80
2022/06/05 06:14:02;;;;;;;9.20;8.32;;;;;;;13.21;79.81;101647.34;5058105;28;20027;-80
2022/06/05 06:16:27;;;;;;;7.78;7.07;;;;;;;13.24;79.79;101647.31;5058497;28;20049;-80
2022/06/05 06:18:54;;;;;;;8.23;7.53;;;;;;;13.27;80.03;101647.25;5059179;28;20059;-80
2022/06/05 06:21:20;;;;;;;8.20;7.57;;;;;;;13.30;79.90;101644.59;5058127;28;20046;-80
2022/06/05 06:23:45;;;;;;;7.50;6.90;;;;;;;13.32;80.17;101653.31;5058075;28;20030;-81
2022/06/05 06:26:11;;;;;;;8.38;7.68;;;;;;;13.38;80.78;101651.53;5058696;28;20024;-80
2022/06/05 06:28:37;;;;;;;8.38;7.38;;;;;;;13.39;79.90;101642.75;5057711;28;20107;-84
2022/06/05 06:31:07;;;;;;;8.02;7.35;;;;;;;13.41;79.45;101646.25;5057495;28;20028;-85
2022/06/05 06:33:33;;;;;;;8.38;7.72;;;;;;;13.45;79.72;101653.19;5057727;28;20024;-84
2022/06/05 06:36:07;;;;;;;6.70;6.20;;;;;;;13.48;79.98;101640.03;5057631;28;20058;-84
2022/06/05 06:38:33;;;;;;;7.67;7.07;;;;;;;13.50;79.56;101635.63;5057767;28;20107;-84
2022/06/05 06:41:07;;;;;;;7.40;6.80;;;;;;;13.55;78.52;101632.94;5057542;28;20047;-84
2022/06/05 06:43:33;;;;;;;8.00;7.40;;;;;;;13.57;77.31;101637.28;5057493;28;20024;-85
2022/06/05 06:45:59;;;;;;;7.93;7.38;;;;;;;13.62;78.02;101642.47;5057967;28;20516;-85
2022/06/05 06:48:26;;;;;;;7.55;6.88;;;;;;;13.66;77.38;101637.16;5041370;28;20121;-84
2022/06/05 06:50:53;;;;;;;7.38;6.78;;;;;;;13.69;78.10;101642.34;5057310;28;20026;-85
2022/06/05 06:53:20;;;;;;;7.10;6.57;;;;;;;13.74;77.89;101636.19;5057154;28;20028;-84
2022/06/05 06:55:45;;;;;;;9.02;6.88;;;;;;;13.76;78.71;101626.53;5057502;28;20496;-84
2022/06/05 06:58:10;;;;;;;8.13;7.43;;;;;;;13.80;77.62;101633.47;5057517;28;20123;-84
2022/06/05 07:00:36;;;;;;;8.10;7.43;;;;;;;13.82;78.04;101632.53;5057383;28;20020;-84
2022/06/05 07:03:02;;;;;;;7.72;7.18;;;;;;;13.86;77.62;101633.38;5057499;28;20020;-84
2022/06/05 07:05:27;;;;;;;7.25;6.75;;;;;;;13.89;78.02;101628.06;5074177;28;20032;-84
2022/06/05 07:07:53;;;;;;;10.10;7.07;;;;;;;13.93;76.45;101621.00;5057216;28;20447;-84
2022/06/05 07:10:18;;;;;;;7.68;6.97;;;;;;;13.97;77.28;101618.31;5073644;28;20464;-84
2022/06/05 07:12:43;;;;;;;7.70;7.10;;;;;;;14.01;77.49;101622.63;5057405;28;20046;-85
2022/06/05 07:15:09;;;;;;;7.03;6.53;;;;;;;14.05;77.06;101612.09;5057451;28;20020;-85
2022/06/05 07:17:35;;;;;;;7.70;7.15;;;;;;;14.08;77.35;101612.88;5057204;28;20035;-84
2022/06/05 07:20:00;;;;;;;8.35;7.50;;;;;;;14.12;76.65;101611.94;5057095;28;20046;-84
2022/06/05 07:22:26;;;;;;;8.50;7.70;;;;;;;14.16;76.33;101612.75;5056984;28;20470;-84
2022/06/05 07:24:53;;;;;;;7.57;7.07;;;;;;;14.20;76.56;101617.06;5057335;28;20184;-85
2022/06/05 07:27:18;;;;;;;8.45;6.97;;;;;;;14.27;76.60;101608.19;5057365;28;20035;-85
2022/06/05 07:29:44;;;;;;;7.15;6.65;;;;;;;14.33;77.35;101601.97;5060555;28;20020;-85
2022/06/05 07:32:11;;;;;;;6.80;6.40;;;;;;;14.37;77.24;101604.53;5061033;28;20028;-85
2022/06/05 07:34:37;;;;;;;7.80;6.80;;;;;;;14.42;77.62;101600.94;5061103;28;20105;-84
2022/06/05 07:37:02;;;;;;;8.40;7.47;;;;;;;14.47;75.78;101594.69;5060840;28;20077;-84
2022/06/05 07:39:29;;;;;;;8.55;7.65;;;;;;;14.54;74.22;101595.47;5061003;28;20031;-86
2022/06/05 07:41:58;;;;;;;8.05;7.40;;;;;;;14.60;73.51;101592.72;5061027;28;20500;-84
2022/06/05 07:44:24;;;;;;;7.55;6.07;;;;;;;14.67;74.33;101588.22;5061394;28;20055;-84
2022/06/05 07:46:50;;;;;;;7.88;7.15;;;;;;;14.73;75.08;101589.91;5060701;28;20024;-84
2022/06/05 07:49:15;;;;;;;7.60;6.95;;;;;;;14.74;74.23;101581.97;5060765;28;20028;-84
2022/06/05 07:54:34;;;;;;;7.13;6.60;;;;;;;14.85;73.68;101579.13;5079915;28;20069;-84
2022/06/05 07:57:04;;;;;;;7.28;6.57;;;;;;;14.91;74.20;101579.00;5061760;28;20020;-84
2022/06/05 07:59:33;;;;;;;6.72;6.22;;;;;;;14.97;73.97;101578.88;5060721;28;20032;-85
2022/06/05 08:02:03;;;;;;;5.72;5.43;;;;;;;15.03;73.44;101577.88;5060725;28;20086;-84
2022/06/05 08:04:30;;;;;;;6.25;5.75;;;;;;;15.11;72.45;101577.75;5060644;28;20020;-84
2022/06/05 08:06:57;;;;;;;6.18;5.68;;;;;;;15.16;72.43;101567.97;5060415;28;20028;-84
2022/06/05 08:09:23;;;;;;;5.43;5.03;;;;;;;15.22;72.66;101573.09;5077070;28;20433;-84
2022/06/05 08:11:48;;;;;;;6.70;5.47;;;;;;;15.28;72.25;101575.59;5059945;28;20063;-84
2022/06/05 08:14:14;;;;;;;5.03;4.78;;;;;;;15.34;72.46;101577.25;5060271;28;20390;-84
2022/06/05 08:16:43;;;;;;;5.25;4.95;;;;;;;15.40;72.27;101573.59;5060012;28;20362;-84
2022/06/05 08:19:10;;;;;;;5.05;4.75;;;;;;;15.44;71.88;101583.16;5060697;28;20070;-83
2022/06/05 08:21:35;;;;;;;5.90;5.40;;;;;;;15.54;68.77;101580.28;5060120;28;20031;-84
2022/06/05 08:24:01;;;;;;;4.97;4.60;;;;;;;15.57;69.78;101584.63;5060239;28;20397;-84
2022/06/05 08:26:26;;;;;;;4.85;4.40;;;;;;;15.61;69.86;101562.59;5059952;28;20032;-84
2022/06/05 08:28:52;;;;;;;4.55;4.32;;;;;;;15.70;68.26;101559.69;5076518;28;20027;-84
2022/06/05 08:31:17;;;;;;;4.60;4.20;;;;;;;15.74;70.17;101557.03;5059834;28;20118;-84
2022/06/05 08:33:44;;;;;;;4.90;4.50;;;;;;;15.79;68.44;101566.53;5059839;28;20023;-84
2022/06/05 08:36:10;;;;;;;5.43;5.07;;;;;;;15.88;67.27;101563.72;5060171;28;20075;-83
2022/06/05 08:41:29;;;;;;;4.50;4.10;;;;;;;16.00;67.83;101562.53;5079240;28;20034;-84
2022/06/05 08:44:13;;;;;;;4.45;4.15;;;;;;;16.05;65.78;101565.91;5076408;28;20497;-83
2022/06/05 08:46:43;;;;;;;4.15;3.85;;;;;;;16.14;65.38;101563.94;5076508;28;20172;-84
2022/06/05 08:49:14;;;;;;;4.57;4.18;;;;;;;16.19;64.87;101555.00;5059601;28;20024;-84
2022/06/05 08:51:48;;;;;;;4.20;4.00;;;;;;;16.28;62.51;101560.94;5059471;28;20035;-84
2022/06/05 08:54:32;;;;;;;3.20;3.10;;;;;;;16.33;65.08;101552.03;5059230;28;20028;-84
2022/06/05 08:57:33;;;;;;;3.45;3.28;;;;;;;16.39;64.34;101546.59;5076154;28;20505;-84
2022/06/05 09:00:11;;;;;;;3.35;3.15;;;;;;;16.46;62.74;101549.06;5062171;28;20110;-84
2022/06/05 09:02:54;;;;;;;3.80;3.60;;;;;;;16.50;63.97;101551.56;5075809;28;20020;-84
2022/06/05 09:05:20;;;;;;;3.63;3.42;;;;;;;16.56;62.56;101546.16;5059354;28;20027;-84
2022/06/05 09:07:55;;;;;;;3.90;3.70;;;;;;;16.60;62.82;101536.34;5075802;28;20077;-84
2022/06/05 09:10:23;;;;;;;;;;;;;;;16.66;61.98;101530.03;5059433;28;20508;-83
2022/06/05 09:13:13;;;;;;;3.85;3.65;;;;;;;16.71;61.81;101528.13;5094376;28;19918;-83
2022/06/05 09:16:02;;;;;;;3.65;3.45;;;;;;;16.80;63.55;101522.59;5093883;28;20028;-84
2022/06/05 09:18:39;;;;;;;3.58;3.28;;;;;;;16.87;64.66;101518.00;5075826;28;20030;-84
2022/06/05 09:21:30;;;;;;;3.63;3.33;;;;;;;16.93;64.03;101512.56;5059008;28;20020;-84
2022/06/05 09:24:08;;;;;;;4.35;3.80;;;;;;;17.04;63.85;101501.69;5059229;28;20031;-84
2022/06/05 09:26:40;;;;;;;3.92;3.60;;;;;;;17.11;63.02;101495.34;5058959;28;20433;-84
2022/06/05 09:29:27;;;;;;;3.20;3.05;;;;;;;17.20;63.11;101497.66;5059021;28;20047;-84
2022/06/05 09:32:11;;;;;;;3.30;3.10;;;;;;;17.28;61.73;101486.88;5058674;28;20059;-84
2022/06/05 09:34:58;;;;;;;3.30;3.10;;;;;;;17.38;60.78;101479.50;5083725;28;20068;-84
2022/06/05 09:37:29;;;;;;;3.40;3.20;;;;;;;17.51;62.80;101477.34;5095712;28;20533;-84
2022/06/05 09:40:00;;;;;;;3.60;3.40;;;;;;;17.61;60.85;101467.34;5086895;28;20040;-84
2022/06/05 09:42:40;;;;;;;3.30;3.10;;;;;;;17.64;58.65;101460.19;5058666;28;20063;-83
2022/06/05 09:45:06;;;;;;;3.72;3.42;;;;;;;17.71;59.36;101458.19;5075193;28;20081;-84
2022/06/05 09:48:14;;;;;;;4.28;3.10;;;;;;;17.74;59.01;101453.66;5074963;28;20028;-84
2022/06/05 09:50:40;;;;;;;3.75;3.45;;;;;;;17.76;57.67;101439.53;5047985;28;20497;-84
2022/06/05 09:53:07;;;;;;;4.80;3.17;;;;;;;17.80;57.35;101425.31;5058450;28;20031;-83
2022/06/05 09:55:32;;;;;;;2.90;2.70;;;;;;;17.84;58.99;101426.94;5058116;28;20024;-83
2022/06/05 10:00:47;;;;;;;4.15;2.88;;;;;;;18.07;55.88;101412.94;5093405;28;20114;-83
2022/06/05 10:03:21;;;;;;;2.83;2.63;;;;;;;18.12;57.93;101399.53;5073979;28;20663;-83
2022/06/05 10:06:17;;;;;;;3.00;2.80;;;;;;;18.20;60.67;101400.09;5078781;28;20114;-82
2022/06/05 10:08:45;;;;;;;2.97;2.83;;;;;;;18.28;59.03;101399.84;5070173;28;20016;-83
2022/06/05 10:11:25;;;;;;;2.70;2.60;;;;;;;18.34;59.17;101397.81;5074810;28;20024;-82
2022/06/05 10:14:28;;;;;;;3.10;3.00;;;;;;;18.48;59.13;101394.66;5058534;28;20042;-83
2022/06/05 10:17:30;;;;;;;3.58;2.90;;;;;;;18.63;54.43;101395.84;5074618;28;20028;-83
2022/06/05 10:20:12;;;;;;;3.08;2.88;;;;;;;18.70;57.40;101402.59;5074664;28;20023;-83
2022/06/05 10:22:50;;;;;;;2.90;2.70;;;;;;;18.80;55.70;101389.03;5074651;28;20023;-82
2022/06/05 10:25:30;;;;;;;2.60;2.50;;;;;;;18.83;55.42;101395.06;5074700;28;20043;-81
2022/06/05 10:28:02;;;;;;;2.65;2.55;;;;;;;18.89;58.34;101404.56;5074625;28;20020;-83
2022/06/05 10:30:36;;;;;;;3.60;3.40;;;;;;;18.92;57.18;101399.16;5092231;28;20034;-83
2022/06/05 10:33:18;;;;;;;3.30;3.20;;;;;;;18.96;54.31;101395.44;5057794;28;20119;-83
2022/06/05 10:35:58;;;;;;;3.00;2.90;;;;;;;19.03;56.56;101388.13;5074667;28;20402;-83
2022/06/05 10:38:57;;;;;;;3.15;2.97;;;;;;;19.10;56.53;101389.59;5058027;28;20397;-83
2022/06/05 10:41:47;;;;;;;3.08;2.80;;;;;;;19.13;56.31;101383.31;5074300;28;20023;-83
2022/06/05 10:44:34;;;;;;;3.05;2.83;;;;;;;19.20;57.27;101382.16;5074615;28;20077;-83
2022/06/05 10:47:17;;;;;;;3.10;3.00;;;;;;;19.25;56.68;101372.22;5057744;28;20035;-83
2022/06/05 10:50:08;;;;;;;3.20;3.00;;;;;;;19.33;54.62;101361.31;5057732;28;20031;-83
2022/06/05 10:52:44;;;;;;;2.72;2.63;;;;;;;19.40;55.48;101360.97;5057770;28;20038;-83
2022/06/05 10:55:24;;;;;;;3.05;2.85;;;;;;;19.47;55.47;101360.72;5057319;28;20120;-83
2022/06/05 10:58:18;;;;;;;6.88;2.90;;;;;;;19.56;54.84;101352.38;5074340;28;20035;-83
2022/06/05 11:00:50;;;;;;;3.45;3.25;;;;;;;19.71;53.85;101364.94;5074003;28;20032;-83
2022/06/05 11:03:46;;;;;;;3.10;2.90;;;;;;;19.84;53.53;101360.00;5075779;28;20481;-83
2022/06/05 11:06:28;;;;;;;3.00;2.80;;;;;;;19.96;53.46;101358.59;5078356;28;20035;-82
2022/06/05 11:09:25;;;;;;;3.08;2.85;;;;;;;20.08;53.92;101363.34;5061563;28;20416;-82
2022/06/05 11:14:56;;;;;;;3.58;3.28;;;;;;;20.26;50.98;101363.44;5081461;28;20035;-83
2022/06/05 11:17:33;;;;;;;3.47;3.17;;;;;;;20.31;52.93;101360.56;5078366;28;20024;-83
2022/06/05 11:20:14;;;;;;;2.92;2.83;;;;;;;20.38;51.73;101362.84;5078110;28;20031;-82
2022/06/05 11:23:04;;;;;;;6.05;5.55;;;;;;;20.48;53.27;101365.06;5061388;28;20074;-82
2022/06/05 11:25:31;;;;;;;3.30;3.10;;;;;;;20.59;51.67;101358.31;5078216;28;20031;-82
2022/06/05 11:28:13;;;;;;;3.20;2.97;;;;;;;20.71;51.59;101356.03;5061166;28;20042;-83
2022/06/05 11:30:58;;;;;;;2.83;2.72;;;;;;;20.79;52.10;101359.16;5061021;28;20031;-82
2022/06/05 11:33:26;;;;;;;3.10;3.00;;;;;;;20.92;48.56;101354.13;5061242;28;20020;-83
2022/06/05 11:36:03;;;;;;;2.80;2.70;;;;;;;20.92;50.16;101332.88;5061195;28;20077;-83
2022/06/05 11:38:41;;;;;;;2.95;2.85;;;;;;;20.99;48.88;101330.78;5077870;28;20046;-82
2022/06/05 11:41:46;;;;;;;2.75;2.55;;;;;;;20.99;49.16;101321.00;5095713;28;20034;-82
2022/06/05 11:44:21;;;;;;;2.70;2.60;;;;;;;21.01;50.43;101320.94;5077627;28;20020;-82
2022/06/05 11:46:53;;;;;;;3.35;3.15;;;;;;;21.15;49.21;101328.22;5077417;28;20031;-82
2022/06/05 11:49:25;;;;;;;2.80;2.70;;;;;;;21.31;47.57;101307.91;5077412;28;20066;-82
2022/06/05 11:52:12;;;;;;;2.80;2.60;;;;;;;21.35;50.30;101306.81;5077275;28;20024;-83
2022/06/05 11:55:02;;;;;;;2.90;2.70;;;;;;;21.35;49.46;101293.53;5061030;28;20059;-83
2022/06/05 11:57:41;;;;;;;2.92;2.72;;;;;;;21.38;46.32;101287.19;5077250;28;20078;-82
2022/06/05 12:00:29;;;;;;;2.53;2.30;;;;;;;21.35;47.86;101272.28;5077398;28;20031;-83
2022/06/05 12:02:59;;;;;;;2.05;1.98;;;;;;;21.40;46.50;101275.53;5078100;28;20024;-82